Terminal Aerodrome Forecast
Issued by NWS

Home | Current Version | Previous Version | Text Only | Print | Product List | Glossary On
Versions: 1 2 3 4 5 6 7 8 9 10 11 12 13 14 15 16 17 18 19
057
FTAK31 PAJN 041150
TAFAKT
TAF
PAKT 041150Z 0412/0512 16005KT P6SM -SHSN BKN035 OVC050
      TEMPO 0412/0415 VRB03KT 2SM -SHSN BR BKN025 OVC035
     FM041500 14005KT 4SM -SHSN BR BKN025 OVC035
      TEMPO 0415/0418 VRB03KT 2SM -SHSN BR BKN020 OVC030
     FM041800 VRB04KT 3SM -SHSN BKN015 OVC025 WS020/13020KT
     FM050300 32006KT P6SM VCSH SCT035 BKN060
      AMD LTD TO CLD VIS AND WIND 0412/0415=

USA.gov is the U.S. government's official web portal to all federal, state and local government web resources and services.